Time;durP1;ratioP1;P1;durP2;ratioP2;P2;SDS_P1;SDS_P2;PMS_P1;PMS_P2;Temp;Humidity;BMP_temperature;BMP_pressure;BME280_temperature;BME280_humidity;BME280_pressure;Samples;Min_cycle;Max_cycle;Signal;HPM_P1;HPM_P2
2020/12/31 00:00:20;;;;;;;44.28;24.38;;;;;;;2.19;97.09;100191.41;4957246;28;20586;-66
2020/12/31 00:02:46;;;;;;;43.13;24.42;;;;;;;2.20;97.42;100190.44;4957907;28;20105;-66
2020/12/31 00:05:13;;;;;;;45.40;25.95;;;;;;;2.18;97.61;100192.34;4958338;28;20086;-66
2020/12/31 00:07:39;;;;;;;42.42;24.17;;;;;;;2.16;96.96;100187.13;4958436;28;20055;-66
2020/12/31 00:10:05;;;;;;;44.10;24.38;;;;;;;2.13;97.71;100187.31;4961323;28;20047;-66
2020/12/31 00:12:31;;;;;;;40.95;23.52;;;;;;;2.14;97.06;100193.50;4959502;28;20693;-66
2020/12/31 00:14:57;;;;;;;47.97;25.98;;;;;;;2.14;97.08;100190.84;4958848;28;20047;-66
2020/12/31 00:17:23;;;;;;;42.00;25.55;;;;;;;2.18;97.00;100190.56;4958725;28;20043;-66
2020/12/31 00:19:49;;;;;;;43.42;23.67;;;;;;;2.18;97.55;100181.72;4962378;28;20110;-65
2020/12/31 00:22:16;;;;;;;40.78;24.52;;;;;;;2.19;97.52;100176.31;4958543;28;20110;-66
2020/12/31 00:24:42;;;;;;;44.22;25.33;;;;;;;2.23;97.65;100188.44;4958989;28;20047;-67
2020/12/31 00:27:08;;;;;;;44.85;26.08;;;;;;;2.24;97.10;100184.84;4957407;28;20514;-66
2020/12/31 00:29:34;;;;;;;44.15;24.10;;;;;;;2.25;98.15;100180.38;4959029;28;20086;-66
2020/12/31 00:31:59;;;;;;;40.83;23.42;;;;;;;2.31;97.60;100179.97;4960459;28;20059;-66
2020/12/31 00:34:25;;;;;;;42.47;23.70;;;;;;;2.25;97.67;100175.94;4959258;28;20051;-65
2020/12/31 00:36:52;;;;;;;42.53;25.05;;;;;;;2.23;97.83;100180.47;4955473;28;20063;-65
2020/12/31 00:39:18;;;;;;;44.13;25.48;;;;;;;2.20;97.63;100179.84;4958344;28;20062;-67
2020/12/31 00:41:44;;;;;;;44.28;25.30;;;;;;;2.19;98.21;100172.81;4959506;28;20050;-66
2020/12/31 00:44:11;;;;;;;47.63;26.42;;;;;;;2.17;97.57;100177.38;4958548;28;20047;-66
2020/12/31 00:46:37;;;;;;;48.42;27.33;;;;;;;2.17;98.22;100180.88;4958704;28;20051;-67
2020/12/31 00:49:03;;;;;;;44.20;26.27;;;;;;;2.20;98.57;100178.03;4958930;28;20062;-67
2020/12/31 00:51:29;;;;;;;49.78;27.00;;;;;;;2.18;98.22;100179.94;4958785;28;20054;-66
2020/12/31 00:53:55;;;;;;;50.28;27.85;;;;;;;2.15;98.18;100174.81;4958603;28;20047;-66
2020/12/31 00:56:22;;;;;;;52.60;28.25;;;;;;;2.18;98.89;100179.94;4956057;28;20123;-65
2020/12/31 00:58:48;;;;;;;52.70;28.52;;;;;;;2.16;99.27;100171.19;4955167;28;20043;-65
2020/12/31 01:01:14;;;;;;;48.47;27.73;;;;;;;2.19;99.07;100172.81;4956450;28;20093;-65
2020/12/31 01:03:40;;;;;;;49.13;27.17;;;;;;;2.16;99.14;100170.34;4956864;28;20070;-65
2020/12/31 01:06:06;;;;;;;51.20;26.02;;;;;;;2.19;98.80;100170.16;4956781;28;20067;-65
2020/12/31 01:08:32;;;;;;;41.80;23.38;;;;;;;2.15;98.91;100173.94;4955175;28;20138;-65
2020/12/31 01:10:57;;;;;;;42.78;22.02;;;;;;;2.12;98.80;100163.53;4958941;28;20055;-65
2020/12/31 01:13:24;;;;;;;39.28;21.27;;;;;;;2.18;98.94;100165.78;4956554;28;20403;-65
2020/12/31 01:15:50;;;;;;;39.58;21.70;;;;;;;2.12;98.88;100159.09;4961150;28;20054;-65
2020/12/31 01:18:16;;;;;;;33.40;19.33;;;;;;;2.12;99.30;100163.53;4957300;28;20077;-65
2020/12/31 01:20:42;;;;;;;38.53;20.48;;;;;;;2.11;99.41;100160.03;4958960;28;20066;-66
2020/12/31 01:23:08;;;;;;;38.58;21.10;;;;;;;2.09;99.05;100168.09;4957360;28;20058;-65
2020/12/31 01:25:34;;;;;;;36.47;21.48;;;;;;;2.14;99.34;100161.66;4959646;28;20074;-66
2020/12/31 01:28:00;;;;;;;42.50;24.17;;;;;;;2.14;99.54;100161.66;4957004;28;20063;-65
2020/12/31 01:30:27;;;;;;;46.78;25.85;;;;;;;2.13;99.04;100157.28;4957040;28;20051;-66
2020/12/31 01:32:54;;;;;;;50.00;25.73;;;;;;;2.11;99.80;100162.69;4956405;28;20066;-65
2020/12/31 01:35:20;;;;;;;48.83;26.08;;;;;;;2.11;99.16;100160.03;4954236;28;20063;-65
2020/12/31 01:37:47;;;;;;;53.05;27.75;;;;;;;2.09;99.86;100164.56;4958067;28;20055;-66
2020/12/31 01:40:13;;;;;;;48.72;26.67;;;;;;;2.09;99.76;100165.44;4960230;28;20054;-67
2020/12/31 01:42:39;;;;;;;49.70;26.33;;;;;;;2.06;99.68;100165.66;4958746;28;20050;-66
2020/12/31 01:45:06;;;;;;;49.60;27.75;;;;;;;2.02;99.62;100163.28;4959179;28;20050;-65
2020/12/31 01:47:33;;;;;;;50.15;27.58;;;;;;;2.00;99.97;100166.03;4957580;28;20043;-66
2020/12/31 01:49:59;;;;;;;50.15;28.30;;;;;;;2.02;99.75;100163.28;4958811;28;20050;-65
2020/12/31 01:52:25;;;;;;;51.05;28.15;;;;;;;2.02;100.00;100172.09;4957268;28;20059;-66
2020/12/31 01:54:51;;;;;;;57.63;29.10;;;;;;;2.01;99.65;100166.88;4958760;28;20570;-66
2020/12/31 01:57:17;;;;;;;50.55;28.27;;;;;;;2.00;99.96;100168.66;4955863;28;20520;-65
2020/12/31 01:59:44;;;;;;;55.75;28.52;;;;;;;2.00;100.00;100163.38;4958348;28;20114;-66
2020/12/31 02:02:11;;;;;;;54.88;28.95;;;;;;;2.02;99.87;100174.75;4952707;28;20098;-66
2020/12/31 02:04:38;;;;;;;62.45;30.17;;;;;;;2.06;99.90;100157.69;4957509;28;20042;-65
2020/12/31 02:07:05;;;;;;;67.30;33.35;;;;;;;2.01;100.00;100165.06;4954343;28;20046;-66
2020/12/31 02:09:31;;;;;;;62.75;31.15;;;;;;;1.99;100.00;100163.47;4957832;28;20059;-66
2020/12/31 02:12:01;;;;;;;62.63;32.72;;;;;;;2.00;100.00;100160.72;4957805;28;20055;-66
2020/12/31 02:14:27;;;;;;;63.35;31.30;;;;;;;2.06;100.00;100165.66;4957180;28;20476;-66
2020/12/31 02:16:53;;;;;;;60.08;32.22;;;;;;;2.06;100.00;100159.47;4954869;28;20055;-66
2020/12/31 02:19:19;;;;;;;74.43;33.17;;;;;;;2.09;100.00;100164.56;4959126;28;20128;-66
2020/12/31 02:24:48;;;;;;;64.13;33.63;;;;;;;2.14;100.00;100164.31;4987121;23;20665;-65
2020/12/31 02:27:14;;;;;;;72.90;36.03;;;;;;;2.14;100.00;100162.50;4976728;28;20042;-66
2020/12/31 02:29:40;;;;;;;67.10;34.25;;;;;;;2.15;100.00;100171.31;4979703;28;20116;-66
2020/12/31 02:32:06;;;;;;;56.42;31.73;;;;;;;2.16;99.99;100165.88;4977701;28;20050;-66
2020/12/31 02:34:32;;;;;;;60.88;31.80;;;;;;;2.17;100.00;100166.75;4977915;28;20125;-66
2020/12/31 02:36:58;;;;;;;59.47;34.20;;;;;;;2.16;100.00;100170.34;4978387;28;20046;-65
2020/12/31 02:39:24;;;;;;;55.05;30.27;;;;;;;2.14;100.00;100172.28;4978382;28;20104;-67
2020/12/31 02:41:50;;;;;;;51.47;30.02;;;;;;;2.17;100.00;100166.75;4976855;28;20050;-66
2020/12/31 02:44:16;;;;;;;51.88;28.17;;;;;;;2.14;100.00;100172.28;4977705;28;20069;-66
2020/12/31 02:46:42;;;;;;;47.13;25.02;;;;;;;2.15;100.00;100173.94;4978855;28;20458;-66
2020/12/31 02:51:59;;;;;;;43.55;22.60;;;;;;;2.14;100.00;100172.28;4989526;23;20495;-66
2020/12/31 02:54:25;;;;;;;37.28;20.10;;;;;;;2.14;100.00;100169.63;4978750;28;20061;-66
2020/12/31 02:56:52;;;;;;;29.25;16.05;;;;;;;2.09;100.00;100169.88;4980206;28;20053;-63
2020/12/31 02:59:18;;;;;;;19.92;11.40;;;;;;;2.02;99.41;100174.75;4980601;28;20046;-63
2020/12/31 03:01:44;;;;;;;16.52;9.55;;;;;;;1.99;100.00;100174.09;4979951;28;20058;-66
2020/12/31 03:04:10;;;;;;;21.70;10.13;;;;;;;2.00;99.44;100166.03;4977920;28;20054;-65
2020/12/31 03:06:35;;;;;;;15.43;8.95;;;;;;;1.99;99.87;100171.44;4980555;28;20070;-66
2020/12/31 03:09:01;;;;;;;19.17;10.43;;;;;;;2.05;99.50;100169.25;4979803;28;20104;-66
2020/12/31 03:11:28;;;;;;;18.17;10.07;;;;;;;2.02;99.55;100172.09;4980741;28;20047;-66
2020/12/31 03:13:55;;;;;;;18.15;9.93;;;;;;;2.02;99.16;100169.44;4980533;28;20051;-65
2020/12/31 03:16:21;;;;;;;14.77;9.02;;;;;;;1.96;99.22;100167.19;4979866;28;20116;-66
2020/12/31 03:18:47;;;;;;;17.38;9.18;;;;;;;2.00;99.08;100166.03;4978685;28;20423;-65
2020/12/31 03:21:13;;;;;;;15.20;9.52;;;;;;;2.06;99.32;100165.66;4979992;28;20070;-65
2020/12/31 03:23:39;;;;;;;19.27;9.93;;;;;;;1.92;99.33;100163.03;4979186;28;20104;-66
2020/12/31 03:26:05;;;;;;;16.80;8.80;;;;;;;1.95;99.08;100151.38;4978394;28;20081;-65
2020/12/31 03:28:31;;;;;;;17.13;9.50;;;;;;;1.86;99.72;100155.47;4979604;28;20554;-65
2020/12/31 03:30:58;;;;;;;15.23;8.68;;;;;;;1.88;99.72;100156.19;4979811;28;20129;-65
2020/12/31 03:33:24;;;;;;;16.58;9.40;;;;;;;1.92;99.36;100157.72;4980192;28;20051;-66
2020/12/31 03:35:50;;;;;;;17.73;9.77;;;;;;;1.87;99.01;100157.13;4979748;28;20046;-65
2020/12/31 03:38:21;;;;;;;19.00;9.93;;;;;;;1.87;99.91;100146.53;4979199;28;20499;-65
2020/12/31 03:40:48;;;;;;;14.77;8.70;;;;;;;1.93;99.39;100140.84;4979496;28;20149;-65
2020/12/31 03:43:14;;;;;;;14.43;8.00;;;;;;;1.96;99.93;100140.66;4977910;28;20092;-65
2020/12/31 03:45:42;;;;;;;16.08;9.15;;;;;;;1.98;99.52;100138.75;4979068;28;20053;-66
2020/12/31 03:48:09;;;;;;;16.00;9.38;;;;;;;1.95;99.45;100130.97;4979792;28;20058;-65
2020/12/31 03:50:35;;;;;;;16.33;8.50;;;;;;;1.84;99.75;100141.41;4980437;28;20070;-66
2020/12/31 03:53:01;;;;;;;17.02;9.02;;;;;;;1.80;99.97;100127.50;4977599;28;20050;-66
2020/12/31 03:55:27;;;;;;;18.50;11.10;;;;;;;1.76;99.80;100120.69;4978131;28;20109;-66
2020/12/31 03:57:53;;;;;;;19.17;10.50;;;;;;;1.79;100.00;100120.50;4977632;28;20050;-66
2020/12/31 04:00:19;;;;;;;20.63;10.43;;;;;;;1.83;99.45;100121.16;4980314;28;20134;-66
2020/12/31 04:02:45;;;;;;;21.80;9.93;;;;;;;1.90;99.90;100119.81;4978792;28;20058;-66
2020/12/31 04:05:12;;;;;;;18.33;10.68;;;;;;;1.83;99.46;100110.53;4977415;28;20518;-66
2020/12/31 04:07:38;;;;;;;18.83;10.27;;;;;;;1.80;100.00;100113.41;4978193;28;20054;-66
2020/12/31 04:10:05;;;;;;;26.15;12.43;;;;;;;1.75;100.00;100114.53;4978395;28;20529;-66
2020/12/31 04:12:31;;;;;;;22.58;12.02;;;;;;;1.83;100.00;100105.25;4979927;28;20411;-66
2020/12/31 04:14:58;;;;;;;25.15;12.95;;;;;;;1.82;99.85;100100.88;5006300;23;20062;-66
2020/12/31 04:17:24;;;;;;;24.92;12.52;;;;;;;1.86;99.90;100105.88;4976146;28;20414;-65
2020/12/31 04:19:50;;;;;;;27.63;14.82;;;;;;;1.79;99.72;100106.38;4977561;28;20043;-67
2020/12/31 04:22:17;;;;;;;28.10;14.25;;;;;;;1.74;99.99;100104.88;4977560;28;20491;-66
2020/12/31 04:24:43;;;;;;;26.17;13.93;;;;;;;1.73;100.00;100103.16;4977830;28;20046;-66
2020/12/31 04:27:09;;;;;;;28.60;15.20;;;;;;;1.71;100.00;100097.09;4976019;28;20116;-66
2020/12/31 04:29:35;;;;;;;32.83;15.73;;;;;;;1.70;100.00;100103.34;4978022;28;20105;-66
2020/12/31 04:32:01;;;;;;;28.88;16.05;;;;;;;1.69;100.00;100099.03;4977210;28;20058;-66
2020/12/31 04:34:27;;;;;;;35.30;17.80;;;;;;;1.72;100.00;100092.66;4977192;28;20487;-67
2020/12/31 04:36:53;;;;;;;33.05;16.98;;;;;;;1.70;100.00;100087.44;4976719;28;20039;-66
2020/12/31 04:39:20;;;;;;;38.20;18.98;;;;;;;1.68;100.00;100086.69;4975303;28;20054;-67
2020/12/31 04:41:46;;;;;;;36.28;18.05;;;;;;;1.67;100.00;100084.16;4979847;28;20058;-66
2020/12/31 04:44:15;;;;;;;40.75;18.88;;;;;;;1.68;100.00;100078.75;4978603;28;20513;-66
2020/12/31 04:46:42;;;;;;;38.60;19.33;;;;;;;1.64;100.00;100074.56;4980736;28;20054;-67
2020/12/31 04:49:12;;;;;;;44.42;20.65;;;;;;;1.60;100.00;100083.66;4980313;28;20478;-66
2020/12/31 04:51:38;;;;;;;40.63;19.98;;;;;;;1.60;100.00;100078.38;4981741;28;20526;-66
2020/12/31 04:54:08;;;;;;;40.55;19.92;;;;;;;1.60;100.00;100081.00;4978189;28;20109;-67
2020/12/31 04:56:36;;;;;;;49.67;21.33;;;;;;;1.62;100.00;100076.47;4981188;28;20047;-67
2020/12/31 04:59:03;;;;;;;43.55;20.67;;;;;;;1.69;100.00;100077.81;4981550;28;20051;-66
2020/12/31 05:01:29;;;;;;;50.28;20.83;;;;;;;1.63;100.00;100077.31;4978772;28;20538;-67
2020/12/31 05:03:55;;;;;;;49.78;22.30;;;;;;;1.66;100.00;100077.97;4979163;28;20047;-66
2020/12/31 05:06:23;;;;;;;49.40;23.52;;;;;;;1.64;100.00;100073.72;4981017;28;20105;-66
2020/12/31 05:08:49;;;;;;;50.13;23.42;;;;;;;1.61;100.00;100080.06;4981000;28;20522;-66
2020/12/31 05:11:15;;;;;;;46.03;22.15;;;;;;;1.62;100.00;100080.91;4979108;28;20484;-66
2020/12/31 05:13:49;;;;;;;51.72;23.85;;;;;;;1.61;100.00;100085.38;4978747;28;20042;-66
2020/12/31 05:16:27;;;;;;;50.00;22.67;;;;;;;1.60;100.00;100078.38;5006234;23;20054;-66
2020/12/31 05:18:53;;;;;;;48.63;22.25;;;;;;;1.62;100.00;100080.91;4962574;28;20070;-66
2020/12/31 05:21:19;;;;;;;50.47;23.15;;;;;;;1.62;100.00;100092.41;4962136;28;20467;-67
2020/12/31 05:23:45;;;;;;;53.17;24.25;;;;;;;1.66;100.00;100093.88;4962867;28;20059;-66
2020/12/31 05:26:12;;;;;;;49.85;24.58;;;;;;;1.66;100.00;100083.28;4962580;28;20138;-67
2020/12/31 05:28:39;;;;;;;56.08;26.55;;;;;;;1.66;100.00;100093.03;4961631;28;20505;-67
2020/12/31 05:31:09;;;;;;;54.13;23.83;;;;;;;1.67;100.00;100090.28;4961349;28;20050;-66
2020/12/31 05:33:37;;;;;;;56.65;26.10;;;;;;;1.73;100.00;100089.88;4959683;28;20572;-66
2020/12/31 05:36:20;;;;;;;55.00;24.70;;;;;;;1.72;100.00;100090.88;4963353;28;20427;-66
2020/12/31 05:39:01;;;;;;;52.70;25.45;;;;;;;1.78;100.00;100092.25;4964522;28;20050;-66
2020/12/31 05:41:28;;;;;;;53.60;24.95;;;;;;;1.82;100.00;100091.09;4962637;28;20058;-66
2020/12/31 05:43:55;;;;;;;54.83;25.15;;;;;;;1.81;100.00;100091.19;4963916;28;20475;-66
2020/12/31 05:46:22;;;;;;;58.78;25.95;;;;;;;1.78;100.00;100086.94;4961361;28;20046;-66
2020/12/31 05:48:55;;;;;;;53.60;25.17;;;;;;;1.78;100.00;100091.41;4964035;28;20047;-66
2020/12/31 05:51:22;;;;;;;59.63;26.73;;;;;;;1.79;100.00;100088.66;4965454;28;21756;-66
2020/12/31 05:53:49;;;;;;;62.78;27.45;;;;;;;1.80;100.00;100082.41;5000778;23;20532;-65
2020/12/31 05:56:17;;;;;;;68.65;29.23;;;;;;;1.77;100.00;100087.03;4977940;28;20180;-66
2020/12/31 05:58:48;;;;;;;61.30;28.77;;;;;;;1.78;100.00;100088.75;4979541;28;20451;-66
2020/12/31 06:01:15;;;;;;;63.42;28.15;;;;;;;1.80;100.00;100090.38;4977675;28;20487;-66
2020/12/31 06:03:51;;;;;;;65.72;29.70;;;;;;;1.84;100.00;100096.31;4979792;28;20061;-66
2020/12/31 06:06:19;;;;;;;58.45;27.58;;;;;;;1.83;100.00;100099.94;4976561;28;20134;-66
2020/12/31 06:08:55;;;;;;;55.08;26.65;;;;;;;1.85;100.00;100104.16;4980134;28;20050;-65
2020/12/31 06:11:30;;;;;;;60.28;26.00;;;;;;;1.86;100.00;100102.38;4978689;28;20058;-65
2020/12/31 06:13:57;;;;;;;56.70;26.98;;;;;;;1.84;100.00;100101.63;4977459;28;20043;-66
2020/12/31 06:16:26;;;;;;;54.83;27.27;;;;;;;1.85;100.00;100105.97;4977865;28;20113;-67
2020/12/31 06:19:00;;;;;;;67.35;28.65;;;;;;;1.85;100.00;100108.63;4979019;28;20055;-66
2020/12/31 06:21:39;;;;;;;58.50;27.67;;;;;;;1.87;100.00;100110.25;4978362;28;20051;-66
2020/12/31 06:24:11;;;;;;;54.55;27.38;;;;;;;1.86;100.00;100110.34;4978562;28;20126;-67
2020/12/31 06:26:39;;;;;;;57.50;25.38;;;;;;;1.89;100.00;100112.81;4976231;28;20058;-66
2020/12/31 06:29:05;;;;;;;62.35;26.65;;;;;;;1.85;100.00;100111.28;4980713;28;20046;-66
2020/12/31 06:31:31;;;;;;;56.38;26.98;;;;;;;1.80;100.00;100111.59;4979909;28;20058;-66
2020/12/31 06:33:58;;;;;;;66.30;28.35;;;;;;;1.81;100.00;100109.78;4977901;28;20321;-66
2020/12/31 06:36:33;;;;;;;61.60;26.98;;;;;;;1.85;100.00;100127.22;4979267;28;20483;-66
2020/12/31 06:38:59;;;;;;;51.90;26.02;;;;;;;1.95;100.00;100124.81;4979964;28;20062;-66
2020/12/31 06:41:38;;;;;;;62.78;27.98;;;;;;;1.96;100.00;100121.19;4977314;28;20054;-66
2020/12/31 06:44:08;;;;;;;59.13;28.00;;;;;;;1.90;100.00;100117.16;4976680;28;20093;-66
2020/12/31 06:46:39;;;;;;;61.50;29.05;;;;;;;1.89;100.00;100118.09;4976587;28;20061;-66
2020/12/31 06:49:06;;;;;;;63.38;28.92;;;;;;;1.90;100.00;100117.16;4977154;28;20101;-66
2020/12/31 06:51:32;;;;;;;59.78;28.95;;;;;;;1.90;100.00;100115.34;4976803;28;20538;-66
2020/12/31 06:53:58;;;;;;;56.28;26.73;;;;;;;1.94;100.00;100123.94;4975521;28;20148;-66
2020/12/31 06:56:45;;;;;;;55.58;26.65;;;;;;;1.94;100.00;100123.94;4976228;28;20051;-66
2020/12/31 06:59:27;;;;;;;58.08;27.08;;;;;;;1.97;100.00;100126.41;4977277;28;20554;-66
2020/12/31 07:01:55;;;;;;;53.80;26.00;;;;;;;1.91;100.00;100125.03;4977205;28;20054;-66
2020/12/31 07:04:29;;;;;;;55.75;26.02;;;;;;;2.03;100.00;100134.00;4975428;28;20686;-66
2020/12/31 07:06:55;;;;;;;55.00;25.85;;;;;;;2.04;100.00;100132.19;4975776;28;20057;-66
2020/12/31 07:09:35;;;;;;;61.58;26.33;;;;;;;1.98;100.00;100128.13;4979465;28;20149;-66
2020/12/31 07:12:04;;;;;;;61.83;26.70;;;;;;;1.98;100.00;100136.09;4977433;28;20062;-66
2020/12/31 07:14:31;;;;;;;58.00;25.25;;;;;;;1.98;100.00;100133.44;4973700;28;20034;-66
2020/12/31 07:16:59;;;;;;;55.22;25.80;;;;;;;2.02;100.00;100145.56;4979532;28;20054;-66
2020/12/31 07:19:33;;;;;;;62.97;27.88;;;;;;;2.01;100.00;100141.19;4978547;28;20487;-66
2020/12/31 07:21:59;;;;;;;61.22;28.58;;;;;;;1.96;100.00;100143.31;4979100;28;20464;-66
2020/12/31 07:24:26;;;;;;;60.88;25.85;;;;;;;1.97;100.00;100144.97;4976259;28;20137;-66
2020/12/31 07:26:56;;;;;;;59.15;26.80;;;;;;;1.97;100.00;100147.63;4977500;28;20125;-66
2020/12/31 07:29:26;;;;;;;68.70;29.02;;;;;;;1.96;100.00;100148.63;4977133;28;20058;-66
2020/12/31 07:31:52;;;;;;;65.20;28.60;;;;;;;1.95;100.00;100146.91;4977551;28;20062;-66
2020/12/31 07:34:20;;;;;;;59.25;27.58;;;;;;;1.96;100.00;100148.63;4977412;28;20054;-66
2020/12/31 07:37:00;;;;;;;61.55;27.90;;;;;;;2.00;100.00;100151.91;4977425;28;20070;-66
2020/12/31 07:39:27;;;;;;;65.60;28.70;;;;;;;2.01;100.00;100154.47;4977715;28;20053;-66
2020/12/31 07:42:16;;;;;;;62.90;28.38;;;;;;;2.07;100.00;100150.56;4978408;28;20447;-66
2020/12/31 07:44:49;;;;;;;56.90;27.10;;;;;;;2.05;100.00;100152.47;4973476;28;20133;-66
2020/12/31 07:47:15;;;;;;;61.75;26.88;;;;;;;2.03;100.00;100152.56;4976020;28;20518;-66
2020/12/31 07:49:43;;;;;;;55.47;26.35;;;;;;;2.03;100.00;100160.53;4978226;28;20129;-66
2020/12/31 07:52:10;;;;;;;58.60;27.27;;;;;;;2.01;100.00;100157.13;4976375;28;20784;-66
2020/12/31 07:54:36;;;;;;;54.20;26.63;;;;;;;2.05;100.00;100155.97;4975658;28;20051;-66
2020/12/31 07:57:04;;;;;;;59.05;27.20;;;;;;;2.03;100.00;100152.56;4977508;28;20062;-66
2020/12/31 07:59:30;;;;;;;61.90;27.52;;;;;;;2.13;100.00;100165.25;4977563;28;20070;-66
2020/12/31 08:01:56;;;;;;;60.30;27.50;;;;;;;2.12;100.00;100163.53;4976449;28;20038;-66
2020/12/31 08:04:26;;;;;;;63.00;27.83;;;;;;;2.04;100.00;100166.69;4975977;28;20149;-66
2020/12/31 08:06:52;;;;;;;60.25;27.48;;;;;;;2.08;100.00;100163.75;4976274;28;20289;-66
2020/12/31 08:09:22;;;;;;;57.35;26.00;;;;;;;2.18;100.00;100168.44;4976655;28;20412;-66
2020/12/31 08:11:50;;;;;;;63.58;28.67;;;;;;;2.12;100.00;100163.53;4976529;28;20406;-66
2020/12/31 08:14:16;;;;;;;60.05;26.15;;;;;;;2.17;100.00;100167.59;4975583;28;20059;-66
2020/12/31 08:16:42;;;;;;;53.28;26.02;;;;;;;2.18;100.00;100168.44;4978153;28;20411;-66
2020/12/31 08:19:08;;;;;;;58.80;27.40;;;;;;;2.18;100.00;100168.44;4981879;28;20054;-66
2020/12/31 08:21:34;;;;;;;65.68;27.85;;;;;;;2.15;100.00;100169.53;4984615;28;20046;-66
2020/12/31 08:24:07;;;;;;;59.05;26.48;;;;;;;2.24;100.00;100170.72;4978532;28;20408;-66
2020/12/31 08:26:35;;;;;;;66.32;28.70;;;;;;;2.13;100.00;100170.56;4982883;28;20042;-66
2020/12/31 08:29:02;;;;;;;62.50;27.60;;;;;;;2.13;100.00;100167.91;4978921;28;20050;-66
2020/12/31 08:31:30;;;;;;;68.47;28.52;;;;;;;2.11;100.00;100168.00;4979768;28;20070;-66
2020/12/31 08:33:59;;;;;;;62.35;27.00;;;;;;;2.18;100.00;100164.00;4979075;28;20067;-66
2020/12/31 08:36:26;;;;;;;67.55;28.45;;;;;;;2.19;100.00;100172.81;4980211;28;20062;-66
2020/12/31 08:38:54;;;;;;;61.67;28.60;;;;;;;2.28;100.00;100174.84;4981105;28;20046;-66
2020/12/31 08:41:21;;;;;;;59.95;28.80;;;;;;;2.23;100.00;100174.31;4980854;28;20108;-66
2020/12/31 08:43:52;;;;;;;58.97;26.48;;;;;;;2.21;100.00;100170.91;4979581;28;20097;-66
2020/12/31 08:46:20;;;;;;;61.47;27.55;;;;;;;2.20;100.00;100169.22;4976383;28;20055;-66
2020/12/31 08:48:52;;;;;;;58.70;27.02;;;;;;;2.25;100.00;100169.75;4968994;28;20062;-66
2020/12/31 08:51:19;;;;;;;60.92;26.73;;;;;;;2.20;100.00;100166.56;4982292;28;20518;-66
2020/12/31 08:53:49;;;;;;;56.05;26.23;;;;;;;2.28;100.00;100169.56;4980812;28;20054;-67
2020/12/31 08:56:15;;;;;;;59.58;25.83;;;;;;;2.25;100.00;100169.75;4980300;28;20050;-66
2020/12/31 08:58:41;;;;;;;59.08;26.33;;;;;;;2.23;100.00;100171.66;4981826;28;20051;-66
2020/12/31 09:01:08;;;;;;;56.15;25.92;;;;;;;2.25;100.00;100175.06;4980422;28;20452;-66
2020/12/31 09:03:34;;;;;;;54.20;26.90;;;;;;;2.27;100.00;100175.84;4977210;28;20570;-66
2020/12/31 09:06:02;;;;;;;53.42;24.80;;;;;;;2.30;100.00;100172.97;4982462;28;20130;-66
2020/12/31 09:08:30;;;;;;;51.92;24.80;;;;;;;2.35;100.00;100164.69;4980025;28;20046;-66
2020/12/31 09:11:01;;;;;;;56.13;25.60;;;;;;;2.31;100.00;100179.97;4981236;28;20046;-66
2020/12/31 09:13:27;;;;;;;55.30;25.90;;;;;;;2.31;100.00;100179.97;4976615;28;20055;-66
2020/12/31 09:16:11;;;;;;;56.35;25.90;;;;;;;2.42;100.00;100177.47;4977366;28;20054;-66
2020/12/31 09:18:38;;;;;;;55.72;25.70;;;;;;;2.39;100.00;100180.34;4980242;28;20046;-66
2020/12/31 09:21:04;;;;;;;55.00;25.27;;;;;;;2.30;100.00;100182.72;4981697;28;20051;-66
2020/12/31 09:23:30;;;;;;;52.90;24.65;;;;;;;2.46;100.00;100180.78;4980356;28;20046;-66
2020/12/31 09:25:56;;;;;;;52.83;24.33;;;;;;;2.37;100.00;100190.22;4980125;28;20063;-66
2020/12/31 09:28:24;;;;;;;49.42;24.38;;;;;;;2.34;100.00;100182.44;4981023;28;20055;-67
2020/12/31 09:30:50;;;;;;;51.45;24.38;;;;;;;2.36;100.00;100183.19;4981444;28;20113;-67
2020/12/31 09:33:19;;;;;;;53.08;24.50;;;;;;;2.40;100.00;100184.69;4980335;28;20051;-67
2020/12/31 09:35:45;;;;;;;47.53;24.02;;;;;;;2.37;100.00;100187.56;4980587;28;20412;-67
2020/12/31 09:38:11;;;;;;;50.08;23.77;;;;;;;2.40;100.00;100187.34;4980514;28;20046;-66
2020/12/31 09:40:37;;;;;;;50.30;24.45;;;;;;;2.37;100.00;100187.56;4981036;28;20073;-66
2020/12/31 09:43:04;;;;;;;52.15;24.65;;;;;;;2.39;100.00;100188.31;4979126;28;20518;-67
2020/12/31 09:45:30;;;;;;;52.50;24.98;;;;;;;2.36;100.00;100198.28;4980016;28;20058;-67
2020/12/31 09:47:57;;;;;;;52.85;25.33;;;;;;;2.31;100.00;100195.91;4976204;28;20058;-67
2020/12/31 09:50:24;;;;;;;51.70;25.25;;;;;;;2.42;100.00;100196.06;4979161;28;20077;-66
2020/12/31 09:52:50;;;;;;;55.03;26.00;;;;;;;2.44;100.00;100207.47;4979459;28;20527;-66
2020/12/31 09:55:16;;;;;;;52.83;23.85;;;;;;;2.40;100.00;100205.06;4978050;28;20150;-66
2020/12/31 09:57:42;;;;;;;45.65;22.88;;;;;;;2.39;100.00;100198.91;4981316;28;20109;-66
2020/12/31 10:00:08;;;;;;;47.85;22.08;;;;;;;2.36;100.00;100199.13;4980073;28;20047;-66
2020/12/31 10:02:34;;;;;;;50.13;23.20;;;;;;;2.38;100.00;100202.53;4975883;28;20052;-66
2020/12/31 10:05:00;;;;;;;44.22;21.20;;;;;;;2.49;100.00;100206.28;4977863;28;20096;-66
2020/12/31 10:07:27;;;;;;;49.40;22.60;;;;;;;2.42;100.00;100208.50;4979210;28;20054;-66
2020/12/31 10:09:53;;;;;;;45.35;22.63;;;;;;;2.36;100.00;100193.81;4979916;28;20077;-66
2020/12/31 10:12:19;;;;;;;48.00;22.83;;;;;;;2.36;100.00;100204.44;4968489;28;20054;-67
2020/12/31 10:14:46;;;;;;;46.00;22.38;;;;;;;2.35;100.00;100192.09;4979147;28;20046;-66
2020/12/31 10:17:12;;;;;;;45.92;22.50;;;;;;;2.36;100.00;100193.81;4978715;28;20075;-67
2020/12/31 10:19:38;;;;;;;41.92;23.30;;;;;;;2.35;100.00;100196.56;4981279;28;20109;-66
2020/12/31 10:22:05;;;;;;;42.67;23.00;;;;;;;2.48;100.00;100204.59;4979993;28;20047;-67
2020/12/31 10:24:32;;;;;;;41.78;22.83;;;;;;;2.39;100.00;100193.59;4979708;28;20496;-67
2020/12/31 10:26:58;;;;;;;48.03;23.70;;;;;;;2.50;99.73;100197.38;4981127;28;20400;-68
2020/12/31 10:29:24;;;;;;;48.60;25.10;;;;;;;2.47;99.58;100200.22;4980156;28;20053;-67
2020/12/31 10:31:50;;;;;;;50.63;25.65;;;;;;;2.50;100.00;100205.34;4980541;28;20082;-66
2020/12/31 10:34:17;;;;;;;49.33;25.45;;;;;;;2.40;100.00;100200.63;4978827;28;20069;-66
2020/12/31 10:36:43;;;;;;;47.28;24.85;;;;;;;2.56;99.70;100199.63;4981131;28;20042;-67
2020/12/31 10:39:09;;;;;;;43.30;23.63;;;;;;;2.51;99.43;100193.78;4980197;28;20054;-67
2020/12/31 10:41:36;;;;;;;42.40;22.30;;;;;;;2.36;99.57;100195.63;4978168;28;20059;-65
2020/12/31 10:44:02;;;;;;;46.78;23.67;;;;;;;2.39;99.60;100195.44;4979857;28;20039;-67
2020/12/31 10:46:27;;;;;;;40.55;22.88;;;;;;;2.42;100.00;100198.72;4979842;28;20400;-67
2020/12/31 10:48:54;;;;;;;41.83;23.38;;;;;;;2.47;99.29;100194.91;4979326;28;20077;-67
2020/12/31 10:51:20;;;;;;;45.17;22.60;;;;;;;2.33;99.78;100194.03;4976194;28;20074;-66
2020/12/31 10:53:46;;;;;;;45.00;20.77;;;;;;;2.38;99.21;100199.88;4975006;28;20058;-64
2020/12/31 10:56:18;;;;;;;38.80;19.73;;;;;;;2.47;99.48;100201.06;4975364;28;20073;-64
2020/12/31 10:58:45;;;;;;;37.45;20.23;;;;;;;2.38;99.72;100199.88;4979105;28;20495;-64
2020/12/31 11:01:13;;;;;;;37.15;19.77;;;;;;;2.37;99.32;100197.31;4976715;28;20504;-65
2020/12/31 11:03:39;;;;;;;38.08;22.67;;;;;;;2.40;99.84;100200.63;4977184;28;20049;-64
2020/12/31 11:06:05;;;;;;;48.95;29.65;;;;;;;2.39;99.06;100206.03;4976893;28;20109;-65
2020/12/31 11:08:31;;;;;;;41.00;25.98;;;;;;;2.45;98.77;100208.31;4977334;28;20146;-63
2020/12/31 11:10:57;;;;;;;44.70;26.15;;;;;;;2.42;98.43;100204.03;4976513;28;20046;-65
2020/12/31 11:13:23;;;;;;;39.63;23.90;;;;;;;2.37;99.20;100200.84;4968027;28;20054;-64
2020/12/31 11:15:50;;;;;;;43.22;22.75;;;;;;;2.30;99.32;100202.19;4974823;28;20146;-65
2020/12/31 11:18:16;;;;;;;40.40;23.80;;;;;;;2.36;98.48;100199.13;4969890;28;20053;-65